Time;durP1;ratioP1;P1;durP2;ratioP2;P2;SDS_P1;SDS_P2;PMS_P1;PMS_P2;Temp;Humidity;BMP_temperature;BMP_pressure;BME280_temperature;BME280_humidity;BME280_pressure;Samples;Min_cycle;Max_cycle;Signal;HPM_P1;HPM_P2
2022/03/06 00:01:51;;;;;;;30.17;21.53;;;;;;;-0.47;88.65;102268.69;4992493;28;20054;-61
2022/03/06 00:04:16;;;;;;;33.83;22.57;;;;;;;-0.45;88.48;102272.28;4992470;28;20475;-61
2022/03/06 00:06:41;;;;;;;28.80;20.67;;;;;;;-0.46;88.28;102273.00;4992324;28;20026;-61
2022/03/06 00:09:07;;;;;;;29.03;20.60;;;;;;;-0.49;87.51;102277.03;4991979;28;20034;-60
2022/03/06 00:11:32;;;;;;;30.47;20.57;;;;;;;-0.47;87.47;102279.78;4992380;28;20022;-61
2022/03/06 00:13:57;;;;;;;29.97;21.80;;;;;;;-0.49;88.63;102277.03;4992035;28;20027;-61
2022/03/06 00:16:23;;;;;;;33.03;20.83;;;;;;;-0.52;87.95;102275.88;4992037;28;20725;-62
2022/03/06 00:18:48;;;;;;;34.50;22.30;;;;;;;-0.54;88.64;102278.22;4991899;28;20022;-60
2022/03/06 00:21:13;;;;;;;34.07;21.47;;;;;;;-0.61;88.56;102276.72;4992400;28;20033;-61
2022/03/06 00:23:39;;;;;;;27.07;20.43;;;;;;;-0.63;88.66;102277.34;4990428;28;20184;-62
2022/03/06 00:26:05;;;;;;;32.20;22.30;;;;;;;-0.68;88.36;102281.03;4991998;28;20026;-60
2022/03/06 00:28:30;;;;;;;30.20;21.13;;;;;;;-0.70;88.82;102283.44;4991725;28;20030;-61
2022/03/06 00:30:56;;;;;;;30.57;21.87;;;;;;;-0.75;88.96;102285.53;4991874;28;20035;-61
2022/03/06 00:33:21;;;;;;;28.83;20.40;;;;;;;-0.77;89.37;102284.47;4991738;28;20058;-61
2022/03/06 00:35:46;;;;;;;31.03;20.20;;;;;;;-0.78;88.71;102287.78;4991706;28;20061;-61
2022/03/06 00:38:12;;;;;;;29.70;21.00;;;;;;;-0.75;88.84;102288.06;4991400;28;20058;-59
2022/03/06 00:40:37;;;;;;;28.37;20.60;;;;;;;-0.73;87.54;102291.69;4990707;28;20031;-61
2022/03/06 00:43:03;;;;;;;28.50;20.93;;;;;;;-0.70;88.66;102297.84;4991389;28;20078;-61
2022/03/06 00:45:28;;;;;;;28.20;20.53;;;;;;;-0.71;89.01;102298.56;4991542;28;20594;-61
2022/03/06 00:47:54;;;;;;;29.33;20.60;;;;;;;-0.74;88.72;102305.13;4991546;28;20062;-61
2022/03/06 00:50:19;;;;;;;29.83;20.53;;;;;;;-0.77;88.90;102306.47;4991651;28;20022;-59
2022/03/06 00:52:44;;;;;;;29.17;20.67;;;;;;;-0.80;90.16;102311.25;4991112;28;20248;-61
2022/03/06 00:55:10;;;;;;;30.03;20.57;;;;;;;-0.82;90.13;102313.66;4991722;28;20525;-61
2022/03/06 00:57:35;;;;;;;28.97;21.27;;;;;;;-0.82;90.04;102315.28;4991448;28;20018;-61
2022/03/06 01:00:01;;;;;;;30.13;21.27;;;;;;;-0.86;90.70;102312.44;4991298;28;20050;-61
2022/03/06 01:02:27;;;;;;;29.43;21.13;;;;;;;-0.87;90.21;102307.19;4990853;28;20081;-62
2022/03/06 01:04:53;;;;;;;31.17;21.80;;;;;;;-0.88;90.31;102311.38;4991604;28;20171;-61
2022/03/06 01:07:18;;;;;;;28.50;20.20;;;;;;;-0.90;89.80;102317.06;4991238;28;20031;-62
2022/03/06 01:09:44;;;;;;;29.77;20.67;;;;;;;-0.88;90.71;102310.50;4991054;28;20456;-61
2022/03/06 01:12:11;;;;;;;32.27;21.67;;;;;;;-0.89;90.42;102322.31;4991294;28;20373;-61
2022/03/06 01:14:37;;;;;;;30.10;21.93;;;;;;;-0.90;90.71;102311.97;4991022;28;20025;-61
2022/03/06 01:17:02;;;;;;;29.30;20.33;;;;;;;-0.92;90.08;102318.56;4990892;28;20026;-61
2022/03/06 01:19:28;;;;;;;31.77;21.80;;;;;;;-0.95;90.07;102318.25;4991374;28;20022;-61
2022/03/06 01:21:53;;;;;;;30.40;20.80;;;;;;;-0.99;90.68;102325.53;4990818;28;20109;-60
2022/03/06 01:24:18;;;;;;;30.80;21.87;;;;;;;-0.99;90.73;102323.00;4990540;28;20061;-62
2022/03/06 01:26:44;;;;;;;32.00;21.30;;;;;;;-0.97;90.83;102318.06;4991124;28;20445;-61
2022/03/06 01:29:09;;;;;;;31.67;21.50;;;;;;;-0.97;90.43;102315.50;4991030;28;20026;-60
2022/03/06 01:31:34;;;;;;;29.60;20.80;;;;;;;-0.97;90.62;102315.50;4990840;28;20050;-61
2022/03/06 01:34:02;;;;;;;29.10;20.77;;;;;;;-0.99;90.73;102328.09;4990699;28;20022;-61
2022/03/06 01:36:28;;;;;;;29.67;21.10;;;;;;;-0.99;90.62;102328.09;4990531;28;20022;-61
2022/03/06 01:38:53;;;;;;;31.23;20.80;;;;;;;-1.00;90.33;102331.38;4990443;28;20037;-61
2022/03/06 01:41:18;;;;;;;28.90;20.63;;;;;;;-1.01;90.41;102329.56;4990704;28;20023;-61
2022/03/06 01:43:44;;;;;;;28.50;20.80;;;;;;;-1.03;90.49;102336.16;4990734;28;20213;-61
2022/03/06 01:46:09;;;;;;;30.33;21.50;;;;;;;-1.06;90.83;102335.84;4990567;28;20297;-61
2022/03/06 01:48:35;;;;;;;33.40;23.03;;;;;;;-1.06;90.90;102340.03;4990183;28;20026;-61
2022/03/06 01:51:00;;;;;;;28.07;20.43;;;;;;;-1.10;90.14;102333.72;4990715;28;20358;-61
2022/03/06 01:53:25;;;;;;;34.50;22.17;;;;;;;-1.12;90.64;102335.22;4990174;28;20510;-61
2022/03/06 01:55:51;;;;;;;30.77;22.00;;;;;;;-1.17;90.61;102341.47;4990497;28;20030;-60
2022/03/06 01:58:16;;;;;;;31.23;21.70;;;;;;;-1.21;90.74;102340.25;4990308;28;20026;-60
2022/03/06 02:00:44;;;;;;;32.13;22.17;;;;;;;-1.23;90.88;102340.09;4990393;28;20094;-61
2022/03/06 02:03:10;;;;;;;31.27;21.87;;;;;;;-1.25;91.36;102339.03;4989328;28;20135;-60
2022/03/06 02:05:38;;;;;;;33.37;21.73;;;;;;;-1.29;90.63;102331.81;4990183;28;20124;-59
2022/03/06 02:08:03;;;;;;;30.40;21.20;;;;;;;-1.27;91.14;102337.06;4990366;28;20026;-60
2022/03/06 02:10:29;;;;;;;32.83;21.50;;;;;;;-1.28;90.72;102333.63;4989903;28;20038;-60
2022/03/06 02:12:54;;;;;;;30.07;21.23;;;;;;;-1.29;91.00;102334.34;4990301;28;20061;-61
2022/03/06 02:15:20;;;;;;;32.27;22.17;;;;;;;-1.31;90.59;102342.59;4990405;28;20033;-60
2022/03/06 02:17:45;;;;;;;31.97;21.73;;;;;;;-1.36;91.43;102340.44;4990021;28;20429;-61
2022/03/06 02:20:17;;;;;;;33.00;21.70;;;;;;;-1.40;91.72;102342.53;4989818;28;20105;-60
2022/03/06 02:22:45;;;;;;;30.73;20.60;;;;;;;-1.42;92.25;102339.78;4988687;28;20026;-59
2022/03/06 02:25:19;;;;;;;31.50;21.13;;;;;;;-1.45;92.26;102340.38;4989913;28;20027;-60
2022/03/06 02:27:46;;;;;;;30.13;20.83;;;;;;;-1.46;92.70;102347.88;5009630;28;20018;-61
2022/03/06 02:30:15;;;;;;;30.93;20.60;;;;;;;-1.47;92.50;102352.03;5009826;28;20493;-61
2022/03/06 02:32:40;;;;;;;29.50;20.17;;;;;;;-1.49;93.09;102352.59;5009441;28;20041;-59
2022/03/06 02:35:08;;;;;;;32.47;21.97;;;;;;;-1.52;93.67;102348.09;5009988;28;20025;-61
2022/03/06 02:37:33;;;;;;;31.00;20.77;;;;;;;-1.56;93.20;102353.59;5009456;28;20030;-59
2022/03/06 02:40:00;;;;;;;29.90;21.43;;;;;;;-1.59;93.35;102350.75;5009366;28;20026;-61
2022/03/06 02:42:30;;;;;;;29.70;20.83;;;;;;;-1.62;93.43;102355.50;5009407;28;20026;-61
2022/03/06 02:44:58;;;;;;;28.63;21.03;;;;;;;-1.65;93.88;102352.63;5009262;28;20037;-60
2022/03/06 02:47:24;;;;;;;29.27;20.97;;;;;;;-1.72;94.62;102357.06;5009298;28;20256;-60
2022/03/06 02:49:50;;;;;;;31.63;21.27;;;;;;;-1.74;95.46;102365.25;5009351;28;20544;-61
2022/03/06 02:52:15;;;;;;;28.60;20.10;;;;;;;-1.77;94.40;102350.59;5009424;28;20010;-60
2022/03/06 02:54:41;;;;;;;33.13;21.70;;;;;;;-1.79;95.03;102357.16;5009687;28;20026;-61
2022/03/06 02:57:07;;;;;;;30.47;19.80;;;;;;;-1.82;95.40;102356.84;5009515;28;20084;-61
2022/03/06 02:59:33;;;;;;;31.30;21.17;;;;;;;-1.85;95.66;102356.47;5009160;28;20054;-61
2022/03/06 03:01:58;;;;;;;32.00;21.07;;;;;;;-1.89;96.28;102360.34;5009206;28;20032;-61
2022/03/06 03:04:24;;;;;;;30.73;21.87;;;;;;;-1.91;96.17;102363.47;5008911;28;20131;-61
2022/03/06 03:06:50;;;;;;;31.43;21.07;;;;;;;-1.91;95.71;102366.91;5009478;28;20425;-60
2022/03/06 03:09:19;;;;;;;33.03;21.40;;;;;;;-1.94;95.49;102364.94;5008995;28;20029;-62
2022/03/06 03:11:48;;;;;;;30.83;21.20;;;;;;;-1.98;95.71;102369.53;5009274;28;20462;-61
2022/03/06 03:14:14;;;;;;;32.33;21.77;;;;;;;-2.01;95.91;102367.56;5009885;28;20496;-61
2022/03/06 03:16:40;;;;;;;30.23;21.00;;;;;;;-2.03;95.89;102366.47;5012753;28;20022;-61
2022/03/06 03:19:06;;;;;;;30.30;21.33;;;;;;;-2.01;96.34;102376.81;5012956;28;20489;-59
2022/03/06 03:21:31;;;;;;;31.57;21.30;;;;;;;-1.99;96.32;102368.63;5012576;28;20026;-59
2022/03/06 03:23:56;;;;;;;26.23;19.77;;;;;;;-1.98;95.95;102365.34;5012548;28;20457;-60
2022/03/06 03:26:22;;;;;;;29.10;20.03;;;;;;;-1.96;96.14;102366.41;5012498;28;20053;-61
2022/03/06 03:28:47;;;;;;;25.97;19.63;;;;;;;-1.95;95.65;102367.31;5012489;28;20029;-60
2022/03/06 03:31:12;;;;;;;24.67;18.97;;;;;;;-1.92;96.17;102369.31;5012405;28;20025;-59
2022/03/06 03:33:38;;;;;;;31.30;20.53;;;;;;;-1.91;95.85;102366.91;5012163;28;20090;-61
2022/03/06 03:36:04;;;;;;;28.17;20.13;;;;;;;-1.88;95.62;102368.88;5012421;28;20534;-61
2022/03/06 03:38:29;;;;;;;26.20;18.93;;;;;;;-1.86;95.58;102367.41;5012335;28;20081;-60
2022/03/06 03:40:54;;;;;;;30.87;20.10;;;;;;;-1.85;95.33;102365.03;5012303;28;20037;-60
2022/03/06 03:43:20;;;;;;;27.07;18.83;;;;;;;-1.84;95.93;102361.75;5011519;28;20457;-61
2022/03/06 03:45:45;;;;;;;26.17;19.03;;;;;;;-1.84;95.69;102363.38;5012242;28;20577;-61
2022/03/06 03:48:10;;;;;;;24.97;18.87;;;;;;;-1.83;95.27;102365.19;5012339;28;20537;-58
2022/03/06 03:50:36;;;;;;;27.20;19.93;;;;;;;-1.83;95.21;102365.19;5011912;28;20034;-60
2022/03/06 03:53:01;;;;;;;27.07;19.13;;;;;;;-1.84;95.02;102361.75;5012194;28;20471;-58
2022/03/06 03:55:26;;;;;;;27.57;18.93;;;;;;;-1.85;94.83;102370.09;5011975;28;20017;-60
2022/03/06 03:57:52;;;;;;;23.77;17.80;;;;;;;-1.84;94.82;102374.47;5012224;28;20033;-60
2022/03/06 04:00:17;;;;;;;29.27;19.33;;;;;;;-1.84;95.44;102369.38;5012043;28;20018;-60
2022/03/06 04:02:42;;;;;;;30.63;21.27;;;;;;;-1.83;95.33;102372.81;5011687;28;20561;-61
2022/03/06 04:05:09;;;;;;;27.10;19.13;;;;;;;-1.85;95.09;102372.66;5011712;28;20029;-61
2022/03/06 04:07:34;;;;;;;27.97;18.83;;;;;;;-1.88;94.93;102382.50;5011850;28;20390;-60
2022/03/06 04:09:59;;;;;;;27.50;19.80;;;;;;;-1.91;95.72;102381.25;5011663;28;20029;-61
2022/03/06 04:12:25;;;;;;;27.33;19.13;;;;;;;-1.94;96.33;102385.28;5011587;28;20418;-61
2022/03/06 04:14:50;;;;;;;28.80;20.90;;;;;;;-1.95;96.61;102387.66;5011390;28;20026;-60
2022/03/06 04:17:16;;;;;;;29.03;19.87;;;;;;;-1.96;96.36;102389.28;5011962;28;20029;-59
2022/03/06 04:19:41;;;;;;;26.97;19.00;;;;;;;-1.95;96.78;102390.19;5011413;28;20075;-60
2022/03/06 04:22:06;;;;;;;28.00;19.93;;;;;;;-1.98;96.10;102395.81;5011456;28;20026;-61
2022/03/06 04:24:32;;;;;;;24.13;19.43;;;;;;;-1.98;96.68;102395.81;5011270;28;20493;-61
2022/03/06 04:26:57;;;;;;;27.13;19.87;;;;;;;-2.00;96.02;102401.50;5011009;28;20472;-60
2022/03/06 04:29:23;;;;;;;24.83;18.17;;;;;;;-2.02;96.50;102401.34;5011489;28;20025;-61
2022/03/06 04:31:48;;;;;;;27.53;19.60;;;;;;;-2.02;96.40;102406.41;5011959;28;20018;-61
2022/03/06 04:34:13;;;;;;;25.37;19.70;;;;;;;-2.02;96.96;102405.50;5011354;28;20104;-60
2022/03/06 04:36:38;;;;;;;23.30;18.17;;;;;;;-2.04;96.85;102412.97;5011130;28;20389;-60
2022/03/06 04:39:05;;;;;;;27.23;20.07;;;;;;;-2.05;95.85;102408.59;5010844;28;20026;-60
2022/03/06 04:41:31;;;;;;;28.07;20.70;;;;;;;-2.03;96.21;102412.22;5011130;28;20037;-59
2022/03/06 04:43:57;;;;;;;26.93;19.07;;;;;;;-2.05;96.54;102412.06;5011411;28;20180;-60
2022/03/06 04:46:22;;;;;;;25.20;19.23;;;;;;;-2.04;96.33;102412.97;5011161;28;20149;-61
2022/03/06 04:48:48;;;;;;;27.40;19.43;;;;;;;-2.06;96.34;102407.72;5011164;28;20029;-60
2022/03/06 04:51:13;;;;;;;25.17;18.90;;;;;;;-2.07;96.51;102423.69;5011066;28;20049;-60
2022/03/06 04:53:39;;;;;;;26.13;19.07;;;;;;;-2.07;96.17;102422.81;5011065;28;20018;-61
2022/03/06 04:56:05;;;;;;;24.90;18.47;;;;;;;-2.08;95.65;102433.69;5010910;28;20033;-60
2022/03/06 04:58:30;;;;;;;25.00;20.23;;;;;;;-2.11;95.68;102424.13;5010499;28;20438;-59
2022/03/06 05:00:56;;;;;;;28.57;19.97;;;;;;;-2.11;95.80;102434.28;5010737;28;20081;-60
2022/03/06 05:03:22;;;;;;;26.70;19.87;;;;;;;-2.13;96.68;102438.28;5010286;28;20046;-59
2022/03/06 05:05:48;;;;;;;23.00;18.53;;;;;;;-2.14;96.24;102439.00;5010474;28;20057;-61
2022/03/06 05:08:14;;;;;;;26.27;20.53;;;;;;;-2.14;96.36;102449.16;5010571;28;20088;-61
2022/03/06 05:10:39;;;;;;;23.63;18.57;;;;;;;-2.15;95.44;102442.28;5010157;28;20022;-59
2022/03/06 05:13:04;;;;;;;25.23;20.53;;;;;;;-2.19;95.85;102445.22;5010530;28;20326;-60
2022/03/06 05:15:30;;;;;;;24.43;19.07;;;;;;;-2.20;96.03;102444.34;5010730;28;20490;-61
2022/03/06 05:17:55;;;;;;;25.97;19.87;;;;;;;-2.20;96.19;102444.34;5010604;28;20029;-60
2022/03/06 05:20:21;;;;;;;23.10;18.33;;;;;;;-2.20;96.17;102451.97;5010336;28;20033;-59
2022/03/06 05:22:46;;;;;;;24.87;19.20;;;;;;;-2.21;96.41;102452.69;5010159;28;20055;-60
2022/03/06 05:25:12;;;;;;;24.30;19.20;;;;;;;-2.22;95.82;102460.13;5010234;28;20037;-60
2022/03/06 05:27:38;;;;;;;26.13;19.90;;;;;;;-2.22;96.24;102460.13;5010687;28;20022;-61
2022/03/06 05:30:06;;;;;;;25.03;19.67;;;;;;;-2.24;96.28;102459.06;5010465;28;20208;-60
2022/03/06 05:32:31;;;;;;;24.00;18.23;;;;;;;-2.24;96.38;102452.34;5010100;28;20151;-58
2022/03/06 05:34:57;;;;;;;26.37;19.57;;;;;;;-2.26;96.25;102453.81;5010159;28;20096;-60
2022/03/06 05:37:22;;;;;;;24.17;18.60;;;;;;;-2.28;96.37;102455.28;5009566;28;20025;-60
2022/03/06 05:39:47;;;;;;;25.10;19.73;;;;;;;-2.30;96.79;102455.09;5009682;28;20125;-60
2022/03/06 05:42:14;;;;;;;26.83;20.00;;;;;;;-2.32;96.76;102464.19;5009685;28;20235;-61
2022/03/06 05:44:41;;;;;;;22.73;19.43;;;;;;;-2.32;96.88;102463.31;5009710;28;20041;-60
2022/03/06 05:47:06;;;;;;;26.30;20.23;;;;;;;-2.36;96.53;102467.16;5010043;28;20029;-59
2022/03/06 05:49:31;;;;;;;22.47;18.40;;;;;;;-2.34;96.41;102472.38;5010057;28;20026;-61
2022/03/06 05:51:57;;;;;;;22.50;18.13;;;;;;;-2.36;96.41;102468.78;5009860;28;20060;-61
2022/03/06 05:54:22;;;;;;;23.27;19.10;;;;;;;-2.37;96.24;102472.03;5009573;28;20079;-59
2022/03/06 05:56:48;;;;;;;24.73;18.70;;;;;;;-2.38;96.77;102477.84;5009721;28;20029;-60
2022/03/06 05:59:13;;;;;;;25.33;19.50;;;;;;;-2.37;96.47;102482.19;5008700;28;20032;-61
2022/03/06 06:01:38;;;;;;;25.87;19.23;;;;;;;-2.39;96.85;102478.59;5008694;28;20044;-61
2022/03/06 06:04:04;;;;;;;26.80;19.20;;;;;;;-2.44;96.68;102481.53;5007031;28;20054;-60
2022/03/06 06:06:29;;;;;;;22.70;17.87;;;;;;;-2.44;96.78;102478.06;5006895;28;20589;-61
2022/03/06 06:08:55;;;;;;;26.27;20.43;;;;;;;-2.45;96.78;102487.34;5006844;28;20108;-60
2022/03/06 06:11:20;;;;;;;22.47;18.23;;;;;;;-2.49;96.80;102495.34;5008211;28;20053;-61
2022/03/06 06:13:47;;;;;;;21.93;18.03;;;;;;;-2.51;96.74;102496.81;5009434;28;20493;-58
2022/03/06 06:16:12;;;;;;;22.10;18.57;;;;;;;-2.50;96.98;102506.22;5009379;28;20030;-61
2022/03/06 06:18:38;;;;;;;24.17;19.40;;;;;;;-2.51;97.22;102500.97;5009306;28;20100;-60
2022/03/06 06:21:04;;;;;;;22.43;18.63;;;;;;;-2.55;96.89;102498.09;5009363;28;20037;-61
2022/03/06 06:23:29;;;;;;;23.10;18.80;;;;;;;-2.56;96.75;102501.38;5009446;28;20037;-60
2022/03/06 06:25:55;;;;;;;21.43;18.77;;;;;;;-2.57;97.03;102497.00;5009260;28;20080;-59
2022/03/06 06:28:20;;;;;;;23.83;19.13;;;;;;;-2.58;97.15;102512.06;5009433;28;20389;-61
2022/03/06 06:30:45;;;;;;;26.10;20.23;;;;;;;-2.58;96.87;102514.63;5009511;28;20011;-61
2022/03/06 06:33:11;;;;;;;21.67;17.87;;;;;;;-2.58;97.43;102518.06;5009348;28;20062;-59
2022/03/06 06:35:36;;;;;;;23.80;19.30;;;;;;;-2.58;97.09;102514.63;5009264;28;20025;-60
2022/03/06 06:38:03;;;;;;;22.87;18.43;;;;;;;-2.58;97.07;102513.00;5009508;28;20054;-61
2022/03/06 06:40:28;;;;;;;22.83;18.23;;;;;;;-2.58;97.06;102514.63;5008871;28;20274;-61
2022/03/06 06:42:54;;;;;;;24.93;19.43;;;;;;;-2.57;97.27;102521.50;5005322;28;20594;-60
2022/03/06 06:45:19;;;;;;;25.27;19.07;;;;;;;-2.57;96.81;102527.47;5001009;28;20529;-61
2022/03/06 06:47:44;;;;;;;22.07;18.23;;;;;;;-2.56;96.75;102520.78;4990750;28;20034;-60
2022/03/06 06:50:10;;;;;;;22.80;19.07;;;;;;;-2.54;97.07;102529.47;4994606;28;20421;-60
2022/03/06 06:52:36;;;;;;;23.53;19.53;;;;;;;-2.51;97.11;102527.28;5002132;28;20281;-60
2022/03/06 06:55:03;;;;;;;22.50;19.10;;;;;;;-2.47;96.80;102528.53;5004562;28;20033;-60
2022/03/06 06:57:29;;;;;;;21.03;17.33;;;;;;;-2.44;97.11;102534.84;5000714;28;20113;-60
2022/03/06 06:59:55;;;;;;;23.53;19.70;;;;;;;-2.41;96.49;102532.66;4993691;28;20089;-61
2022/03/06 07:02:20;;;;;;;22.17;18.20;;;;;;;-2.34;96.37;102538.44;4993306;28;20030;-59
2022/03/06 07:04:46;;;;;;;21.63;18.57;;;;;;;-2.27;95.86;102546.00;4992809;28;20073;-61
2022/03/06 07:07:11;;;;;;;21.03;17.30;;;;;;;-2.25;95.29;102552.16;4993853;28;20041;-60
2022/03/06 07:09:36;;;;;;;22.47;19.27;;;;;;;-2.14;95.35;102555.00;5003370;28;20023;-59
2022/03/06 07:12:03;;;;;;;21.13;18.43;;;;;;;-1.99;95.05;102558.31;4993085;28;20157;-61
2022/03/06 07:14:29;;;;;;;19.73;17.63;;;;;;;-1.82;94.23;102555.13;4993373;28;20030;-60
2022/03/06 07:16:54;;;;;;;18.70;16.63;;;;;;;-1.71;92.35;102546.13;4993170;28;20077;-61
2022/03/06 07:19:19;;;;;;;21.30;16.90;;;;;;;-1.63;92.33;102541.84;4992876;28;20045;-60
2022/03/06 07:21:45;;;;;;;25.27;18.77;;;;;;;-1.56;91.80;102549.41;4992787;28;20558;-61
2022/03/06 07:24:10;;;;;;;21.30;18.03;;;;;;;-1.39;91.97;102547.81;4994434;28;20033;-61
2022/03/06 07:26:36;;;;;;;21.20;16.87;;;;;;;-1.14;90.48;102555.53;4998875;28;20079;-60
2022/03/06 07:29:02;;;;;;;21.57;17.30;;;;;;;-0.90;89.96;102556.38;5004212;28;20433;-61
2022/03/06 07:31:27;;;;;;;19.70;17.23;;;;;;;-0.68;88.42;102562.06;4994193;28;20037;-61
2022/03/06 07:33:53;;;;;;;20.30;17.87;;;;;;;-0.46;87.54;102560.88;4991631;28;20490;-61
2022/03/06 07:36:18;;;;;;;21.67;16.93;;;;;;;-0.23;86.55;102567.50;4997771;28;20034;-60
2022/03/06 07:38:44;;;;;;;19.90;17.53;;;;;;;-0.02;85.84;102569.69;4991481;28;20102;-60
2022/03/06 07:41:09;;;;;;;19.10;17.00;;;;;;;0.23;84.83;102574.75;4990904;28;20030;-60
2022/03/06 07:43:35;;;;;;;19.13;16.07;;;;;;;0.62;83.57;102575.19;4990333;28;20482;-60
2022/03/06 07:46:01;;;;;;;22.17;16.67;;;;;;;1.22;81.75;102575.88;4990220;28;20140;-58
2022/03/06 07:48:26;;;;;;;18.90;15.93;;;;;;;1.92;79.15;102580.00;4991428;28;20463;-58
2022/03/06 07:50:52;;;;;;;16.97;15.17;;;;;;;2.57;75.56;102580.06;4991662;28;20021;-59
2022/03/06 07:53:17;;;;;;;17.03;14.93;;;;;;;2.96;73.15;102592.91;4992394;28;20459;-61
2022/03/06 07:55:43;;;;;;;16.50;14.67;;;;;;;3.24;71.71;102588.63;5000875;28;20661;-61
2022/03/06 07:58:08;;;;;;;17.97;15.73;;;;;;;3.29;71.56;102596.72;5011417;28;20076;-61
2022/03/06 08:00:33;;;;;;;18.80;15.37;;;;;;;3.31;70.19;102594.31;4995910;28;20030;-60
2022/03/06 08:02:59;;;;;;;16.90;15.20;;;;;;;3.31;70.37;102605.44;4991372;28;20069;-60
2022/03/06 08:05:24;;;;;;;15.63;13.93;;;;;;;3.28;69.91;102605.19;4992306;28;20069;-61
2022/03/06 08:07:49;;;;;;;17.00;15.20;;;;;;;3.54;71.17;102598.94;4991770;28;20034;-61
2022/03/06 08:10:15;;;;;;;16.07;14.43;;;;;;;3.74;68.77;102611.72;4991949;28;20161;-61
2022/03/06 08:12:41;;;;;;;17.40;14.80;;;;;;;3.83;68.35;102610.84;4992077;28;20038;-61
2022/03/06 08:15:10;;;;;;;16.03;14.33;;;;;;;3.87;67.71;102608.59;4991832;28;20391;-60
2022/03/06 08:17:36;;;;;;;16.20;14.60;;;;;;;4.07;68.97;102607.75;4992180;28;20383;-59
2022/03/06 08:20:03;;;;;;;15.50;13.87;;;;;;;4.11;68.21;102603.78;4992576;28;20461;-61
2022/03/06 08:22:29;;;;;;;18.33;14.43;;;;;;;4.36;68.39;102604.25;4991202;28;20026;-61
2022/03/06 08:24:54;;;;;;;14.97;13.37;;;;;;;4.74;66.61;102615.97;4990132;28;20030;-60
2022/03/06 08:27:20;;;;;;;15.50;13.90;;;;;;;4.97;65.87;102608.38;4991722;28;20030;-61
2022/03/06 08:29:45;;;;;;;16.10;13.27;;;;;;;4.98;64.40;102616.25;4991957;28;20061;-61
2022/03/06 08:32:11;;;;;;;15.40;13.90;;;;;;;5.20;63.87;102617.13;4997219;28;20360;-62
2022/03/06 08:34:36;;;;;;;16.27;14.10;;;;;;;5.35;62.52;102618.38;4999210;28;20025;-62
2022/03/06 08:37:02;;;;;;;14.52;13.05;;;;;;;5.45;62.18;102609.75;4991733;28;20311;-61
2022/03/06 08:39:27;;;;;;;14.90;13.30;;;;;;;5.51;62.35;102617.97;4990708;28;20425;-61
2022/03/06 08:41:52;;;;;;;14.27;12.87;;;;;;;5.74;62.34;102629.22;4991110;28;20027;-62
2022/03/06 08:44:18;;;;;;;15.10;12.93;;;;;;;5.82;61.00;102622.13;4990235;28;20018;-61
2022/03/06 08:46:43;;;;;;;14.60;13.13;;;;;;;5.96;62.18;102624.88;4991407;28;20073;-61
2022/03/06 08:49:09;;;;;;;14.25;12.85;;;;;;;5.89;60.95;102623.50;4990322;28;20030;-62
2022/03/06 08:51:35;;;;;;;12.95;11.73;;;;;;;5.75;59.42;102625.88;4991400;28;20105;-60
2022/03/06 08:54:00;;;;;;;15.38;13.77;;;;;;;5.63;61.29;102625.78;4990815;28;20502;-60
2022/03/06 08:56:26;;;;;;;13.85;12.55;;;;;;;5.42;60.85;102614.63;4990435;28;20148;-61
2022/03/06 08:58:51;;;;;;;14.27;12.88;;;;;;;5.38;62.33;102625.44;4990339;28;20101;-61
2022/03/06 09:01:17;;;;;;;15.77;14.02;;;;;;;5.32;62.51;102627.53;4990682;28;20027;-62
2022/03/06 09:03:42;;;;;;;14.70;13.30;;;;;;;5.38;63.53;102628.91;4990208;28;20062;-62
2022/03/06 09:06:08;;;;;;;14.38;12.60;;;;;;;5.60;63.16;102632.34;4995730;28;20459;-62
2022/03/06 09:08:33;;;;;;;14.50;13.10;;;;;;;5.66;62.12;102640.56;4990507;28;20030;-62
2022/03/06 09:10:58;;;;;;;13.73;12.35;;;;;;;5.71;60.94;102634.13;4997324;28;20032;-61
2022/03/06 09:13:24;;;;;;;16.35;13.70;;;;;;;5.83;61.59;102638.47;4990786;28;20026;-62
2022/03/06 09:15:49;;;;;;;13.52;12.20;;;;;;;5.85;60.42;102636.91;4989663;28;20184;-62
2022/03/06 09:18:15;;;;;;;14.77;13.27;;;;;;;5.96;59.73;102637.75;4988650;28;20514;-63
2022/03/06 09:20:40;;;;;;;15.43;13.85;;;;;;;6.01;60.47;102639.03;4989564;28;20042;-62
2022/03/06 09:23:07;;;;;;;15.20;13.70;;;;;;;6.15;61.38;102640.19;4988881;28;20750;-60
2022/03/06 09:25:33;;;;;;;15.05;13.65;;;;;;;6.13;60.00;102634.00;4992259;28;20390;-61
2022/03/06 09:28:02;;;;;;;15.38;13.82;;;;;;;5.93;61.32;102643.56;4989924;28;20041;-61
2022/03/06 09:30:28;;;;;;;15.50;14.00;;;;;;;6.00;62.27;102639.81;4992407;28;20022;-62
2022/03/06 09:32:53;;;;;;;15.23;13.73;;;;;;;5.97;62.30;102634.44;4989581;28;20537;-62
2022/03/06 09:35:19;;;;;;;13.80;12.55;;;;;;;5.90;61.63;102633.00;4990094;28;20434;-61
2022/03/06 09:37:44;;;;;;;14.00;12.60;;;;;;;5.85;60.91;102636.91;4992477;28;20018;-62
2022/03/06 09:40:10;;;;;;;14.60;13.20;;;;;;;5.71;60.59;102634.13;4990478;28;20370;-62
2022/03/06 09:42:36;;;;;;;15.15;13.52;;;;;;;5.82;63.01;102637.56;5000508;28;20041;-61
2022/03/06 09:45:08;;;;;;;15.00;13.32;;;;;;;5.70;62.29;102628.84;4990565;28;20022;-62
2022/03/06 09:47:34;;;;;;;15.30;13.80;;;;;;;5.73;63.07;102632.56;4990552;28;20121;-61
2022/03/06 09:50:01;;;;;;;15.68;13.80;;;;;;;5.74;62.36;102634.38;4990028;28;20471;-62
2022/03/06 09:52:27;;;;;;;15.00;13.60;;;;;;;5.80;62.59;102630.47;4989708;28;20018;-62
2022/03/06 09:54:52;;;;;;;14.18;12.82;;;;;;;5.76;63.78;102637.06;4989552;28;20027;-62
2022/03/06 09:57:19;;;;;;;14.55;13.15;;;;;;;5.60;61.78;102627.19;4992312;28;20025;-61
2022/03/06 09:59:45;;;;;;;14.40;12.93;;;;;;;5.51;61.53;102625.69;4989446;28;20096;-61
2022/03/06 10:02:11;;;;;;;12.90;11.60;;;;;;;5.37;60.49;102633.94;4992717;28;20061;-62
2022/03/06 10:04:37;;;;;;;14.13;12.53;;;;;;;5.34;60.86;102626.88;4989490;28;20050;-61
2022/03/06 10:07:08;;;;;;;17.17;12.52;;;;;;;5.37;62.20;102623.66;4988742;28;20513;-61
2022/03/06 10:09:54;;;;;;;13.80;12.40;;;;;;;5.31;62.01;102623.16;4989176;28;20115;-62
2022/03/06 10:12:28;;;;;;;16.33;14.68;;;;;;;5.38;64.69;102617.72;4998706;28;20097;-60
2022/03/06 10:14:56;;;;;;;13.82;12.40;;;;;;;5.41;61.93;102633.44;5008472;28;20029;-61
2022/03/06 10:17:24;;;;;;;13.13;11.82;;;;;;;5.42;61.84;102632.63;5008879;28;20057;-61
2022/03/06 10:19:51;;;;;;;13.00;11.57;;;;;;;5.35;61.99;102632.91;5009574;28;20030;-62
2022/03/06 10:22:17;;;;;;;12.52;11.32;;;;;;;5.37;61.90;102636.50;4997090;28;20037;-62
2022/03/06 10:24:51;;;;;;;13.33;11.93;;;;;;;5.34;62.11;102632.03;4995466;28;20030;-62
2022/03/06 10:27:36;;;;;;;12.80;11.55;;;;;;;5.38;61.56;102630.59;5004549;28;20437;-62
2022/03/06 10:30:18;;;;;;;13.63;12.23;;;;;;;5.42;63.03;102630.06;4996405;28;20091;-62
2022/03/06 10:32:43;;;;;;;12.40;11.00;;;;;;;5.46;61.44;102636.38;4999026;28;20026;-61
2022/03/06 10:35:09;;;;;;;12.60;11.07;;;;;;;5.51;60.93;102625.69;4989446;28;20193;-61
2022/03/06 10:37:34;;;;;;;12.82;11.52;;;;;;;5.52;60.75;102637.75;4990737;28;20038;-62
2022/03/06 10:40:00;;;;;;;12.95;11.75;;;;;;;5.33;61.12;102634.44;5003780;28;20033;-62
2022/03/06 10:42:25;;;;;;;12.95;10.68;;;;;;;5.38;62.35;102633.16;4992441;28;20031;-62
2022/03/06 10:44:50;;;;;;;13.00;11.48;;;;;;;5.45;62.45;102655.16;4988865;28;20026;-62
2022/03/06 10:47:16;;;;;;;13.05;11.02;;;;;;;5.56;61.63;102643.19;4995382;28;20105;-62
2022/03/06 10:49:41;;;;;;;15.02;10.80;;;;;;;5.59;61.49;102638.28;5008415;28;20111;-63
2022/03/06 10:52:13;;;;;;;12.02;10.93;;;;;;;5.66;60.11;102635.44;5008538;28;20592;-62
2022/03/06 10:54:56;;;;;;;11.73;10.57;;;;;;;5.59;60.05;102628.91;4996818;28;20022;-62
2022/03/06 10:57:23;;;;;;;12.40;11.18;;;;;;;5.65;61.06;102636.19;4988547;28;20101;-62
2022/03/06 10:59:49;;;;;;;11.80;10.15;;;;;;;5.68;59.03;102633.88;4991424;28;20478;-62
2022/03/06 11:02:15;;;;;;;11.73;10.52;;;;;;;5.64;59.49;102639.53;4988771;28;20113;-63
2022/03/06 11:04:44;;;;;;;11.40;10.20;;;;;;;5.74;60.69;102631.78;4991075;28;20154;-62
2022/03/06 11:07:10;;;;;;;11.25;10.15;;;;;;;5.83;59.76;102635.91;4989563;28;20513;-62